createdAt,value
2019-03-13T00:01:56.070Z,3.40
2019-03-13T00:04:25.675Z,3.30
2019-03-13T00:06:55.293Z,3.30
2019-03-13T00:09:24.829Z,3.30
2019-03-13T00:11:54.280Z,3.30
2019-03-13T00:14:23.763Z,3.30
2019-03-13T00:16:53.209Z,3.30
2019-03-13T00:19:22.686Z,3.20
2019-03-13T00:21:52.103Z,3.20
2019-03-13T00:24:21.605Z,3.20
2019-03-13T00:26:51.040Z,3.20
2019-03-13T00:29:20.486Z,3.10
2019-03-13T00:31:49.916Z,3.10
2019-03-13T00:34:19.384Z,3.10
2019-03-13T00:36:48.815Z,3.10
2019-03-13T00:39:18.323Z,3.10
2019-03-13T00:41:47.777Z,3.10
2019-03-13T00:44:17.231Z,3.10
2019-03-13T00:46:46.705Z,3.10
2019-03-13T00:49:16.629Z,3.10
2019-03-13T00:51:46.080Z,3.10
2019-03-13T00:54:15.452Z,3.10
2019-03-13T00:56:45.029Z,3.00
2019-03-13T00:59:14.498Z,3.00
2019-03-13T01:01:50.588Z,3.00
2019-03-13T01:04:42.488Z,3.00
2019-03-13T01:07:12.432Z,3.00
2019-03-13T01:09:41.887Z,3.00
2019-03-13T01:12:11.351Z,3.00
2019-03-13T01:14:40.860Z,3.00
2019-03-13T01:17:10.485Z,3.00
2019-03-13T01:19:39.944Z,3.00
2019-03-13T01:22:09.440Z,3.10
2019-03-13T01:24:38.891Z,3.10
2019-03-13T01:27:08.486Z,3.10
2019-03-13T01:29:37.992Z,3.20
2019-03-13T01:32:24.988Z,3.20
2019-03-13T01:35:22.385Z,3.30
2019-03-13T01:37:51.872Z,3.30
2019-03-13T01:40:22.215Z,3.40
2019-03-13T01:42:51.656Z,3.40
2019-03-13T01:45:21.136Z,3.40
2019-03-13T01:47:50.601Z,3.40
2019-03-13T01:50:20.036Z,3.50
2019-03-13T01:52:49.489Z,3.50
2019-03-13T01:55:18.980Z,3.40
2019-03-13T01:57:48.493Z,3.40
2019-03-13T02:00:18.041Z,3.40
2019-03-13T02:02:47.532Z,3.50
2019-03-13T02:05:16.979Z,3.40
2019-03-13T02:07:46.451Z,3.50
2019-03-13T02:10:15.916Z,3.50
2019-03-13T02:12:45.361Z,3.50
2019-03-13T02:15:15.332Z,3.50
2019-03-13T02:17:44.796Z,3.50
2019-03-13T02:20:14.505Z,3.50
2019-03-13T02:22:43.941Z,3.50
2019-03-13T02:25:13.924Z,3.50
2019-03-13T02:27:43.432Z,3.50
2019-03-13T02:30:13.696Z,3.50
2019-03-13T02:32:43.158Z,3.50
2019-03-13T02:35:12.608Z,3.50
2019-03-13T02:37:42.052Z,3.50
2019-03-13T02:40:11.633Z,3.50
2019-03-13T02:42:41.128Z,3.50
2019-03-13T02:45:11.058Z,3.50
2019-03-13T02:47:40.729Z,3.50
2019-03-13T02:50:10.637Z,3.50
2019-03-13T02:52:40.119Z,3.50
2019-03-13T02:55:09.692Z,3.40
2019-03-13T02:57:39.188Z,3.50
2019-03-13T03:00:10.572Z,3.50
2019-03-13T03:03:00.072Z,3.50
2019-03-13T03:05:29.566Z,3.50
2019-03-13T03:07:59.788Z,3.50
2019-03-13T03:10:29.272Z,3.50
2019-03-13T03:12:58.910Z,3.60
2019-03-13T03:15:28.511Z,3.60
2019-03-13T03:17:57.970Z,3.60
2019-03-13T03:20:27.386Z,3.60
2019-03-13T03:22:56.851Z,3.60
2019-03-13T03:25:26.300Z,3.70
2019-03-13T03:27:55.840Z,3.70
2019-03-13T03:30:25.535Z,3.70
2019-03-13T03:32:55.317Z,3.70
2019-03-13T03:35:25.668Z,3.70
2019-03-13T03:37:55.169Z,3.80
2019-03-13T03:40:24.637Z,3.80
2019-03-13T03:42:54.121Z,3.80
2019-03-13T03:45:23.641Z,3.80
2019-03-13T03:47:53.221Z,3.80
2019-03-13T03:50:22.727Z,3.90
2019-03-13T03:52:52.211Z,3.90
2019-03-13T03:55:21.667Z,3.90
2019-03-13T03:57:51.209Z,3.90
2019-03-13T04:00:20.908Z,4.00
2019-03-13T04:02:50.451Z,4.00
2019-03-13T04:05:20.465Z,4.00
2019-03-13T04:07:51.729Z,4.00
2019-03-13T04:10:26.131Z,4.00
2019-03-13T04:12:55.876Z,4.00
2019-03-13T04:15:25.443Z,4.00
2019-03-13T04:17:55.424Z,4.00
2019-03-13T04:20:24.893Z,4.00
2019-03-13T04:22:54.371Z,4.00
2019-03-13T04:25:39.265Z,4.00
2019-03-13T04:28:08.794Z,4.00
2019-03-13T04:30:38.226Z,4.00
2019-03-13T04:33:07.743Z,4.00
2019-03-13T04:35:37.172Z,4.00
2019-03-13T04:38:06.616Z,4.00
2019-03-13T04:40:36.124Z,4.00
2019-03-13T04:43:05.568Z,4.00
2019-03-13T04:45:34.989Z,4.00
2019-03-13T04:48:04.445Z,4.00
2019-03-13T04:50:33.889Z,4.00
2019-03-13T04:53:03.324Z,4.00
2019-03-13T04:55:32.783Z,4.00
2019-03-13T04:58:02.224Z,4.00
2019-03-13T05:00:31.656Z,4.10
2019-03-13T05:03:01.148Z,4.00
2019-03-13T05:05:56.940Z,4.10
2019-03-13T05:08:52.895Z,4.10
2019-03-13T05:11:22.356Z,4.10
2019-03-13T05:13:51.776Z,4.10
2019-03-13T05:16:21.256Z,4.10
2019-03-13T05:18:50.702Z,4.10
2019-03-13T05:21:20.153Z,4.20
2019-03-13T05:23:49.640Z,4.20
2019-03-13T05:26:19.103Z,4.10
2019-03-13T05:28:48.536Z,4.20
2019-03-13T05:31:17.997Z,4.10
2019-03-13T05:33:47.460Z,4.10
2019-03-13T05:36:17.256Z,4.10
2019-03-13T05:38:46.843Z,4.10
2019-03-13T05:41:16.301Z,4.20
2019-03-13T05:43:45.745Z,4.20
2019-03-13T05:46:15.232Z,4.10
2019-03-13T05:48:44.696Z,4.10
2019-03-13T05:51:14.148Z,4.10
2019-03-13T05:53:43.603Z,4.10
2019-03-13T05:56:13.608Z,4.00
2019-03-13T05:58:43.053Z,4.00
2019-03-13T06:01:12.536Z,4.00
2019-03-13T06:03:42.735Z,4.00
2019-03-13T06:06:12.236Z,4.00
2019-03-13T06:08:41.676Z,4.00
2019-03-13T06:11:11.135Z,4.10
2019-03-13T06:13:40.600Z,4.10
2019-03-13T06:16:10.036Z,4.20
2019-03-13T06:18:39.553Z,4.20
2019-03-13T06:21:09.376Z,4.20
2019-03-13T06:23:38.982Z,4.20
2019-03-13T06:26:09.057Z,4.20
2019-03-13T06:28:44.820Z,4.30
2019-03-13T06:31:14.536Z,4.30
2019-03-13T06:33:43.972Z,4.40
2019-03-13T06:36:16.201Z,4.40
2019-03-13T06:38:45.725Z,4.50
2019-03-13T06:41:15.177Z,4.50
2019-03-13T06:43:44.612Z,4.50
2019-03-13T06:46:14.075Z,4.60
2019-03-13T06:48:43.550Z,4.60
2019-03-13T06:51:13.042Z,4.60
2019-03-13T06:53:42.480Z,4.60
2019-03-13T06:56:12.001Z,4.70
2019-03-13T06:58:50.643Z,4.70
2019-03-13T07:01:30.674Z,4.70
2019-03-13T07:04:21.808Z,4.80
2019-03-13T07:07:10.221Z,4.80
2019-03-13T07:09:58.652Z,4.80
2019-03-13T07:12:45.744Z,4.80
2019-03-13T07:15:29.707Z,4.80
2019-03-13T07:18:10.080Z,4.80
2019-03-13T07:21:04.278Z,4.80
2019-03-13T07:23:52.688Z,4.80
2019-03-13T07:26:41.056Z,4.80
2019-03-13T07:29:29.413Z,4.70
2019-03-13T07:32:23.739Z,4.60
2019-03-13T07:35:20.855Z,4.60
2019-03-13T07:37:57.072Z,4.50
2019-03-13T07:40:45.488Z,4.50
2019-03-13T07:43:36.679Z,4.50
2019-03-13T07:46:28.817Z,4.50
2019-03-13T07:49:20.104Z,4.50
2019-03-13T07:52:14.367Z,4.50
2019-03-13T07:54:58.076Z,4.40
2019-03-13T07:57:49.103Z,4.50
2019-03-13T08:00:40.382Z,4.50
2019-03-13T08:03:31.620Z,4.50
2019-03-13T08:06:22.763Z,4.60
2019-03-13T08:09:20.200Z,4.70
2019-03-13T08:12:11.557Z,4.80
2019-03-13T08:14:58.487Z,4.90
2019-03-13T08:17:48.191Z,4.90
2019-03-13T08:20:35.244Z,4.90
2019-03-13T08:23:38.497Z,4.90
2019-03-13T08:26:15.731Z,5.00
2019-03-13T08:28:53.037Z,5.00
2019-03-13T08:31:44.016Z,5.00
2019-03-13T08:34:25.190Z,5.00
2019-03-13T08:37:13.558Z,5.00
2019-03-13T08:40:00.505Z,5.10
2019-03-13T08:43:03.891Z,5.10
2019-03-13T08:45:52.291Z,5.10
2019-03-13T08:48:29.036Z,5.10
2019-03-13T08:51:20.384Z,5.10
2019-03-13T08:54:12.075Z,5.10
2019-03-13T08:57:03.187Z,5.20
2019-03-13T08:59:41.654Z,5.20
2019-03-13T09:02:32.990Z,5.20
2019-03-13T09:05:10.905Z,5.20
2019-03-13T09:07:57.691Z,5.20
2019-03-13T09:10:35.916Z,5.30
2019-03-13T09:13:26.360Z,5.30
2019-03-13T09:16:08.181Z,5.40
2019-03-13T09:18:42.573Z,5.40
2019-03-13T09:21:33.790Z,5.40
2019-03-13T09:24:12.623Z,5.50
2019-03-13T09:27:00.294Z,5.50
2019-03-13T09:29:54.394Z,5.60
2019-03-13T09:32:34.651Z,5.60
2019-03-13T09:35:13.132Z,5.60
2019-03-13T09:37:59.848Z,5.70
2019-03-13T09:40:44.305Z,5.80
2019-03-13T09:43:31.223Z,5.80
2019-03-13T09:46:13.447Z,5.80
2019-03-13T09:48:48.999Z,5.80
2019-03-13T09:51:52.338Z,5.80
2019-03-13T09:54:46.527Z,5.80
2019-03-13T09:57:37.650Z,5.70
2019-03-13T10:00:24.948Z,5.70
2019-03-13T10:03:12.628Z,5.70
2019-03-13T10:06:01.107Z,5.70
2019-03-13T10:08:47.021Z,5.60
2019-03-13T10:11:35.414Z,5.60
2019-03-13T10:14:12.580Z,5.60
2019-03-13T10:17:09.929Z,5.70
2019-03-13T10:19:51.968Z,5.70
2019-03-13T10:22:39.052Z,5.80
2019-03-13T10:25:26.739Z,5.80
2019-03-13T10:28:12.300Z,5.90
2019-03-13T10:31:03.639Z,6.00
2019-03-13T10:33:37.908Z,6.10
2019-03-13T10:36:41.044Z,6.10
2019-03-13T10:39:39.149Z,6.10
2019-03-13T10:42:27.589Z,6.10
2019-03-13T10:45:11.707Z,6.10
2019-03-13T10:47:58.541Z,6.10
2019-03-13T10:50:45.469Z,6.10
2019-03-13T10:53:24.956Z,6.10
2019-03-13T10:56:05.889Z,6.20
2019-03-13T10:58:54.276Z,6.30
2019-03-13T11:01:51.695Z,6.30
2019-03-13T11:04:26.932Z,6.30
2019-03-13T11:07:10.325Z,6.30
2019-03-13T11:09:44.379Z,6.40
2019-03-13T11:12:26.992Z,6.40
2019-03-13T11:15:30.472Z,6.40
2019-03-13T11:18:14.048Z,6.40
2019-03-13T11:21:02.424Z,6.30
2019-03-13T11:23:46.933Z,6.30
2019-03-13T11:26:33.759Z,6.30
2019-03-13T11:29:34.200Z,6.30
2019-03-13T11:32:18.590Z,6.30
2019-03-13T11:35:05.208Z,6.30
2019-03-13T11:38:05.635Z,6.30
2019-03-13T11:40:59.856Z,6.20
2019-03-13T11:43:41.309Z,6.20
2019-03-13T11:46:29.997Z,6.10
2019-03-13T11:49:27.299Z,6.20
2019-03-13T11:52:27.488Z,6.10
2019-03-13T11:55:27.804Z,6.10
2019-03-13T11:58:31.068Z,6.10
2019-03-13T12:01:17.936Z,6.10
2019-03-13T12:04:09.083Z,6.10
2019-03-13T12:07:00.251Z,6.00
2019-03-13T12:09:35.098Z,6.00
2019-03-13T12:12:21.855Z,6.00
2019-03-13T12:15:08.643Z,6.10
2019-03-13T12:17:55.459Z,6.10
2019-03-13T12:21:01.919Z,6.20
2019-03-13T12:23:40.056Z,6.30
2019-03-13T12:26:40.483Z,6.40
2019-03-13T12:29:27.511Z,6.50
2019-03-13T12:32:14.239Z,6.60
2019-03-13T12:34:52.186Z,6.80
2019-03-13T12:37:31.365Z,6.90
2019-03-13T12:40:18.105Z,6.90
2019-03-13T12:42:59.797Z,7.00
2019-03-13T12:45:51.103Z,7.00
2019-03-13T12:48:42.711Z,7.00
2019-03-13T12:51:31.092Z,7.10
2019-03-13T12:54:12.068Z,7.20
2019-03-13T12:57:06.390Z,7.20
2019-03-13T13:00:10.064Z,7.30
2019-03-13T13:03:13.322Z,7.30
2019-03-13T13:05:57.969Z,7.20
2019-03-13T13:08:44.856Z,7.20
2019-03-13T13:11:33.245Z,7.10
2019-03-13T13:14:16.437Z,7.10
2019-03-13T13:17:13.939Z,7.20
2019-03-13T13:19:43.587Z,7.20
2019-03-13T13:22:13.029Z,7.20
2019-03-13T13:24:42.530Z,7.20
2019-03-13T13:27:12.164Z,7.10
2019-03-13T13:29:42.866Z,7.10
2019-03-13T13:32:12.304Z,7.10
2019-03-13T13:34:41.726Z,7.10
2019-03-13T13:37:11.200Z,7.00
2019-03-13T13:39:40.680Z,7.10
2019-03-13T13:42:10.091Z,7.00
2019-03-13T13:44:39.564Z,7.00
2019-03-13T13:47:09.054Z,6.90
2019-03-13T13:49:38.483Z,6.90
2019-03-13T13:52:07.919Z,6.80
2019-03-13T13:54:37.399Z,6.90
2019-03-13T13:57:06.821Z,6.90
2019-03-13T13:59:36.264Z,7.00
2019-03-13T14:02:05.727Z,7.10
2019-03-13T14:04:35.263Z,7.10
2019-03-13T14:07:04.699Z,7.20
2019-03-13T14:09:35.500Z,7.10
2019-03-13T14:12:05.069Z,7.00
2019-03-13T14:14:34.507Z,7.00
2019-03-13T14:17:04.021Z,6.90
2019-03-13T14:19:33.463Z,6.80
2019-03-13T14:22:02.941Z,6.80
2019-03-13T14:24:32.443Z,6.70
2019-03-13T14:27:13.943Z,6.60
2019-03-13T14:29:32.986Z,6.50
2019-03-13T14:32:02.416Z,6.50
2019-03-13T14:34:31.856Z,6.40
2019-03-13T14:37:01.332Z,6.40
2019-03-13T14:39:30.817Z,6.40
2019-03-13T14:42:00.303Z,6.40
2019-03-13T14:44:29.797Z,6.40
2019-03-13T14:46:59.300Z,6.40
2019-03-13T14:49:28.736Z,6.50
2019-03-13T14:51:58.187Z,6.50
2019-03-13T14:54:27.696Z,6.40
2019-03-13T14:56:57.177Z,6.40
2019-03-13T14:59:26.623Z,6.40
2019-03-13T15:01:56.107Z,6.30
2019-03-13T15:04:25.532Z,6.20
2019-03-13T15:06:54.971Z,6.10
2019-03-13T15:09:24.496Z,6.00
2019-03-13T15:11:54.035Z,5.90
2019-03-13T15:14:23.645Z,5.90
2019-03-13T15:16:53.432Z,5.80
2019-03-13T15:19:25.514Z,5.80
2019-03-13T15:21:56.744Z,5.70
2019-03-13T15:24:28.172Z,5.70
2019-03-13T15:26:57.651Z,5.70
2019-03-13T15:29:27.160Z,5.70
2019-03-13T15:31:56.619Z,5.70
2019-03-13T15:34:26.099Z,5.60
2019-03-13T15:36:55.574Z,5.60
2019-03-13T15:39:25.317Z,5.70
2019-03-13T15:41:56.095Z,5.70
2019-03-13T15:44:25.545Z,5.70
2019-03-13T15:46:55.024Z,5.70
2019-03-13T15:49:27.283Z,5.70
2019-03-13T15:51:56.841Z,5.70
2019-03-13T15:54:26.354Z,5.70
2019-03-13T15:56:55.841Z,5.70
2019-03-13T15:59:25.310Z,5.80
2019-03-13T16:01:54.810Z,5.80
2019-03-13T16:04:24.245Z,5.80
2019-03-13T16:06:53.731Z,5.80
2019-03-13T16:09:23.247Z,5.80
2019-03-13T16:11:52.788Z,5.80
2019-03-13T16:14:22.275Z,5.80
2019-03-13T16:16:51.760Z,5.80
2019-03-13T16:19:21.237Z,5.80
2019-03-13T16:21:50.736Z,5.80
2019-03-13T16:24:20.231Z,5.80
2019-03-13T16:26:49.716Z,5.80
2019-03-13T16:29:19.404Z,5.80
2019-03-13T16:31:48.894Z,5.80
2019-03-13T16:34:18.607Z,5.90
2019-03-13T16:36:48.184Z,5.90
2019-03-13T16:39:17.654Z,5.90
2019-03-13T16:41:47.109Z,6.00
2019-03-13T16:44:16.589Z,6.00
2019-03-13T16:46:46.056Z,6.00
2019-03-13T16:49:15.579Z,6.00
2019-03-13T16:51:45.131Z,6.00
2019-03-13T16:54:14.552Z,6.00
2019-03-13T16:56:44.160Z,6.00
2019-03-13T16:59:13.753Z,6.00
2019-03-13T17:01:43.247Z,6.00
2019-03-13T17:04:12.759Z,6.00
2019-03-13T17:06:42.194Z,6.00
2019-03-13T17:09:11.623Z,6.00
2019-03-13T17:11:41.121Z,6.00
2019-03-13T17:14:10.666Z,6.00
2019-03-13T17:16:40.105Z,6.00
2019-03-13T17:19:09.551Z,6.00
2019-03-13T17:21:38.995Z,6.00
2019-03-13T17:24:08.492Z,6.00
2019-03-13T17:26:37.939Z,6.00
2019-03-13T17:29:07.368Z,6.00
2019-03-13T17:31:36.858Z,6.00
2019-03-13T17:34:06.289Z,6.00
2019-03-13T17:36:35.767Z,6.00
2019-03-13T17:39:07.553Z,6.00
2019-03-13T17:41:36.994Z,5.90
2019-03-13T17:44:06.490Z,5.90
2019-03-13T17:46:35.992Z,5.90
2019-03-13T17:49:07.522Z,5.90
2019-03-13T17:51:36.981Z,5.90
2019-03-13T17:54:06.507Z,5.90
2019-03-13T17:56:35.995Z,5.90
2019-03-13T17:59:05.447Z,5.90
2019-03-13T18:01:34.920Z,5.90
2019-03-13T18:04:04.409Z,5.90
2019-03-13T18:06:33.923Z,5.90
2019-03-13T18:09:04.357Z,5.90
2019-03-13T18:11:33.852Z,5.90
2019-03-13T18:14:04.068Z,5.90
2019-03-13T18:16:33.674Z,5.90
2019-03-13T18:19:03.176Z,5.90
2019-03-13T18:21:32.788Z,5.80
2019-03-13T18:24:05.719Z,5.80
2019-03-13T18:26:35.178Z,5.80
2019-03-13T18:29:04.663Z,5.80
2019-03-13T18:31:34.102Z,5.80
2019-03-13T18:34:03.555Z,5.80
2019-03-13T18:36:33.002Z,5.80
2019-03-13T18:39:02.596Z,5.80
2019-03-13T18:41:32.147Z,5.80
2019-03-13T18:44:01.666Z,5.80
2019-03-13T18:46:31.178Z,5.80
2019-03-13T18:49:00.701Z,5.70
2019-03-13T18:51:34.369Z,5.70
2019-03-13T18:54:03.885Z,5.70
2019-03-13T18:56:33.323Z,5.70
2019-03-13T18:59:02.787Z,5.70
2019-03-13T19:01:32.255Z,5.70
2019-03-13T19:04:01.725Z,5.60
2019-03-13T19:06:31.258Z,5.70
2019-03-13T19:09:00.738Z,5.70
2019-03-13T19:11:30.244Z,5.70
2019-03-13T19:13:59.766Z,5.70
2019-03-13T19:16:29.260Z,5.70
2019-03-13T19:18:58.853Z,5.70
2019-03-13T19:21:28.346Z,5.60
2019-03-13T19:23:57.860Z,5.70
2019-03-13T19:26:27.324Z,5.60
2019-03-13T19:28:56.768Z,5.60
2019-03-13T19:31:26.281Z,5.70
2019-03-13T19:33:55.772Z,5.60
2019-03-13T19:36:25.211Z,5.60
2019-03-13T19:38:54.635Z,5.60
2019-03-13T19:41:24.124Z,5.60
2019-03-13T19:43:53.625Z,5.60
2019-03-13T19:46:23.096Z,5.60
2019-03-13T19:48:52.619Z,5.60
2019-03-13T19:51:22.572Z,5.60
2019-03-13T19:53:52.117Z,5.60
2019-03-13T19:56:21.840Z,5.60
2019-03-13T19:58:51.196Z,5.60
2019-03-13T20:01:20.704Z,5.60
2019-03-13T20:03:55.217Z,5.50
2019-03-13T20:06:21.410Z,5.50
2019-03-13T20:08:53.139Z,5.50
2019-03-13T20:11:22.601Z,5.50
2019-03-13T20:13:52.149Z,5.50
2019-03-13T20:16:21.596Z,5.40
2019-03-13T20:18:51.127Z,5.40
2019-03-13T20:21:20.559Z,5.40
2019-03-13T20:23:49.992Z,5.40
2019-03-13T20:26:19.456Z,5.40
2019-03-13T20:28:48.919Z,5.40
2019-03-13T20:31:18.348Z,5.40
2019-03-13T20:33:47.907Z,5.40
2019-03-13T20:36:17.335Z,5.40
2019-03-13T20:38:47.456Z,5.40
2019-03-13T20:41:16.972Z,5.40
2019-03-13T20:43:46.491Z,5.40
2019-03-13T20:46:15.989Z,5.40
2019-03-13T20:48:45.461Z,5.40
2019-03-13T20:51:14.895Z,5.40
2019-03-13T20:53:44.336Z,5.40
2019-03-13T20:56:13.776Z,5.40
2019-03-13T20:58:43.236Z,5.40
2019-03-13T21:01:12.690Z,5.40
2019-03-13T21:03:42.148Z,5.50
2019-03-13T21:06:11.669Z,5.50
2019-03-13T21:08:41.110Z,5.50
2019-03-13T21:11:10.589Z,5.50
2019-03-13T21:13:40.050Z,5.50
2019-03-13T21:16:09.605Z,5.50
2019-03-13T21:18:39.905Z,5.50
2019-03-13T21:21:09.387Z,5.50
2019-03-13T21:23:38.900Z,5.50
2019-03-13T21:26:08.316Z,5.50
2019-03-13T21:28:37.799Z,5.50
2019-03-13T21:31:07.296Z,5.50
2019-03-13T21:33:36.727Z,5.50
2019-03-13T21:36:06.180Z,5.50
2019-03-13T21:38:35.668Z,5.50
2019-03-13T21:41:05.419Z,5.50
2019-03-13T21:43:34.875Z,5.50
2019-03-13T21:46:06.663Z,5.50
2019-03-13T21:48:35.445Z,5.50
2019-03-13T21:51:05.107Z,5.50
2019-03-13T21:53:34.624Z,5.40
2019-03-13T21:56:04.232Z,5.40
2019-03-13T21:58:34.049Z,5.40
2019-03-13T22:01:03.599Z,5.40
2019-03-13T22:03:33.243Z,5.40
2019-03-13T22:06:02.649Z,5.40
2019-03-13T22:08:32.085Z,5.40
2019-03-13T22:11:01.581Z,5.40
2019-03-13T22:13:31.036Z,5.30
2019-03-13T22:16:00.493Z,5.40
2019-03-13T22:18:29.935Z,5.30
2019-03-13T22:20:59.408Z,5.30
2019-03-13T22:23:28.831Z,5.30
2019-03-13T22:25:58.348Z,5.30
2019-03-13T22:28:27.795Z,5.30
2019-03-13T22:30:57.229Z,5.30
2019-03-13T22:33:26.713Z,5.20
2019-03-13T22:35:56.151Z,5.20
2019-03-13T22:38:25.640Z,5.20
2019-03-13T22:40:55.061Z,5.20
2019-03-13T22:43:24.532Z,5.20
2019-03-13T22:45:54.057Z,5.10
2019-03-13T22:48:23.504Z,5.10
2019-03-13T22:50:52.940Z,5.10
2019-03-13T22:53:22.391Z,5.10
2019-03-13T22:55:51.852Z,5.10
2019-03-13T22:58:24.413Z,5.00
2019-03-13T23:01:00.677Z,5.10
2019-03-13T23:03:31.076Z,5.00
2019-03-13T23:06:00.833Z,5.00
2019-03-13T23:08:31.302Z,5.10
2019-03-13T23:11:00.893Z,5.10
2019-03-13T23:13:30.329Z,5.10
2019-03-13T23:15:59.819Z,5.10
2019-03-13T23:18:29.312Z,5.10
2019-03-13T23:20:58.784Z,5.10
2019-03-13T23:23:28.319Z,5.10
2019-03-13T23:25:57.817Z,5.00
2019-03-13T23:28:27.273Z,5.00
2019-03-13T23:30:56.751Z,5.00
2019-03-13T23:33:26.217Z,5.00
2019-03-13T23:35:55.688Z,5.00
2019-03-13T23:38:25.139Z,5.00
2019-03-13T23:40:54.601Z,5.00
2019-03-13T23:43:24.092Z,5.00
2019-03-13T23:45:53.525Z,5.00
2019-03-13T23:48:22.987Z,5.00
2019-03-13T23:50:52.483Z,4.90
2019-03-13T23:53:21.904Z,4.90
2019-03-13T23:55:51.360Z,4.90
2019-03-13T23:58:20.876Z,4.90
